createdAt,value
2022-11-25T00:04:57.506Z,82.10
2022-11-25T00:10:00.919Z,82.51
2022-11-25T00:15:04.844Z,82.58
2022-11-25T00:20:08.870Z,82.30
2022-11-25T00:25:12.386Z,82.96
2022-11-25T00:30:15.902Z,83.04
2022-11-25T00:35:19.517Z,82.90
2022-11-25T00:40:22.931Z,83.10
2022-11-25T00:45:26.506Z,83.10
2022-11-25T00:50:29.962Z,83.13
2022-11-25T00:55:53.446Z,83.24
2022-11-25T01:01:02.285Z,83.42
2022-11-25T01:06:09.446Z,83.18
2022-11-25T01:11:15.562Z,83.58
2022-11-25T01:16:20.864Z,83.41
2022-11-25T01:21:26.928Z,83.62
2022-11-25T01:26:31.161Z,83.68
2022-11-25T01:31:36.873Z,83.72
2022-11-25T01:36:40.927Z,83.63
2022-11-25T01:41:45.057Z,84.11
2022-11-25T01:47:09.559Z,84.04
2022-11-25T01:52:18.608Z,84.20
2022-11-25T01:57:28.164Z,84.14
2022-11-25T02:02:32.444Z,84.22
2022-11-25T02:07:46.513Z,84.50
2022-11-25T02:12:50.720Z,84.46
2022-11-25T02:17:54.206Z,84.46
2022-11-25T02:23:16.462Z,84.75
2022-11-25T02:28:26.837Z,84.74
2022-11-25T02:33:30.354Z,84.87
2022-11-25T02:38:44.831Z,84.70
2022-11-25T02:43:48.781Z,84.81
2022-11-25T02:49:08.968Z,84.95
2022-11-25T02:54:15.998Z,84.96
2022-11-25T02:59:19.575Z,84.74
2022-11-25T03:04:22.985Z,85.05
2022-11-25T03:09:26.502Z,85.01
2022-11-25T03:14:30.120Z,84.82
2022-11-25T03:19:33.533Z,84.99
2022-11-25T03:24:37.136Z,84.87
2022-11-25T03:29:40.773Z,85.16
2022-11-25T03:34:44.283Z,84.89
2022-11-25T03:39:47.902Z,85.00
2022-11-25T03:44:51.356Z,85.18
2022-11-25T03:49:54.841Z,85.13
2022-11-25T03:54:58.355Z,85.17
2022-11-25T04:00:02.668Z,85.10
2022-11-25T04:05:06.609Z,85.44
2022-11-25T04:10:10.529Z,85.50
2022-11-25T04:15:18.245Z,85.23
2022-11-25T04:20:21.624Z,84.95
2022-11-25T04:25:25.075Z,85.20
2022-11-25T04:30:29.361Z,84.54
2022-11-25T04:35:32.825Z,84.96
2022-11-25T04:40:36.336Z,85.21
2022-11-25T04:45:58.972Z,85.09
2022-11-25T04:51:03.339Z,85.27
2022-11-25T04:56:07.466Z,85.43
2022-11-25T05:01:10.940Z,85.41
2022-11-25T05:06:14.599Z,85.07
2022-11-25T05:11:18.933Z,85.01
2022-11-25T05:16:22.406Z,84.97
2022-11-25T05:21:26.064Z,85.06
2022-11-25T05:26:29.482Z,85.03
2022-11-25T05:31:33.099Z,85.10
2022-11-25T05:36:37.231Z,84.92
2022-11-25T05:41:40.641Z,85.16
2022-11-25T05:46:47.431Z,85.34
2022-11-25T05:51:52.281Z,84.84
2022-11-25T05:56:55.694Z,84.97
2022-11-25T06:01:59.372Z,84.82
2022-11-25T06:07:03.338Z,84.98
2022-11-25T06:12:07.294Z,84.91
2022-11-25T06:17:10.674Z,85.12
2022-11-25T06:22:14.499Z,84.98
2022-11-25T06:27:18.221Z,85.04
2022-11-25T06:32:21.940Z,85.08
2022-11-25T06:37:25.456Z,85.16
2022-11-25T06:42:28.970Z,85.03
2022-11-25T06:47:32.489Z,85.10
2022-11-25T06:52:36.206Z,84.76
2022-11-25T06:57:39.724Z,84.72
2022-11-25T07:02:48.384Z,84.74
2022-11-25T07:07:52.711Z,84.78
2022-11-25T07:12:56.317Z,84.93
2022-11-25T07:17:59.826Z,84.69
2022-11-25T07:23:03.342Z,85.04
2022-11-25T07:28:06.857Z,84.82
2022-11-25T07:33:11.035Z,85.28
2022-11-25T07:38:14.505Z,85.22
2022-11-25T07:43:18.019Z,85.25
2022-11-25T07:48:21.539Z,85.03
2022-11-25T07:53:24.948Z,84.51
2022-11-25T07:58:28.462Z,84.93
2022-11-25T08:03:36.465Z,84.91
2022-11-25T08:08:41.639Z,84.76
2022-11-25T08:13:45.768Z,84.45
2022-11-25T08:18:50.209Z,84.52
2022-11-25T08:23:54.237Z,84.45
2022-11-25T08:28:58.878Z,84.48
2022-11-25T08:34:03.727Z,84.34
2022-11-25T08:39:28.996Z,84.58
2022-11-25T08:44:31.950Z,84.41
2022-11-25T08:49:40.872Z,84.27
2022-11-25T08:54:45.327Z,83.95
2022-11-25T08:59:48.741Z,83.65
2022-11-25T09:04:52.361Z,83.55
2022-11-25T09:09:55.977Z,83.89
2022-11-25T09:14:59.491Z,84.11
2022-11-25T09:20:05.472Z,83.70
2022-11-25T09:25:09.289Z,83.35
2022-11-25T09:30:13.628Z,83.55
2022-11-25T09:35:18.085Z,83.64
2022-11-25T09:40:36.731Z,83.47
2022-11-25T09:46:23.116Z,83.22
2022-11-25T09:51:38.960Z,83.66
2022-11-25T09:56:47.590Z,83.41
2022-11-25T10:02:05.399Z,83.55
2022-11-25T10:07:18.603Z,83.31
2022-11-25T10:12:28.552Z,83.47
2022-11-25T10:17:56.029Z,83.43
2022-11-25T10:23:05.401Z,83.22
2022-11-25T10:28:21.082Z,83.29
2022-11-25T10:33:53.475Z,83.20
2022-11-25T10:39:24.739Z,82.62
2022-11-25T10:44:30.731Z,82.67
2022-11-25T10:49:45.594Z,82.55
2022-11-25T10:55:24.379Z,82.43
2022-11-25T11:00:37.220Z,81.82
2022-11-25T11:05:49.609Z,81.91
2022-11-25T11:11:17.379Z,81.50
2022-11-25T11:16:26.710Z,81.62
2022-11-25T11:21:35.794Z,81.71
2022-11-25T11:26:39.295Z,81.46
2022-11-25T11:31:51.963Z,81.44
2022-11-25T11:37:22.986Z,81.60
2022-11-25T11:42:44.625Z,81.17
2022-11-25T11:47:51.212Z,81.43
2022-11-25T11:53:05.277Z,81.27
2022-11-25T11:58:50.501Z,81.10
2022-11-25T12:04:11.902Z,80.59
2022-11-25T12:09:20.704Z,80.42
2022-11-25T12:14:26.817Z,80.84
2022-11-25T12:19:52.247Z,80.58
2022-11-25T12:25:11.122Z,80.23
2022-11-25T12:30:19.863Z,80.10
2022-11-25T12:35:34.644Z,80.01
2022-11-25T12:40:47.173Z,80.01
2022-11-25T12:46:14.312Z,79.90
2022-11-25T12:51:36.181Z,80.15
2022-11-25T12:56:52.501Z,79.66
2022-11-25T13:02:15.899Z,79.63
2022-11-25T13:07:19.224Z,79.61
2022-11-25T13:12:54.982Z,79.43
2022-11-25T13:18:08.654Z,79.52
2022-11-25T13:23:13.359Z,79.66
2022-11-25T13:28:28.859Z,79.41
2022-11-25T13:33:44.874Z,79.04
2022-11-25T13:38:51.360Z,79.66
2022-11-25T13:44:24.354Z,79.24
2022-11-25T13:49:30.432Z,79.40
2022-11-25T13:54:43.780Z,79.25
2022-11-25T13:59:54.311Z,79.21
2022-11-25T14:05:00.638Z,79.04
2022-11-25T14:10:13.573Z,79.08
2022-11-25T14:15:26.102Z,78.88
2022-11-25T14:20:38.735Z,79.03
2022-11-25T14:25:53.390Z,78.90
2022-11-25T14:31:11.809Z,78.85
2022-11-25T14:36:21.329Z,78.80
2022-11-25T14:41:31.397Z,78.83
2022-11-25T14:46:34.808Z,78.79
2022-11-25T14:51:39.155Z,78.79
2022-11-25T14:56:42.660Z,78.77
2022-11-25T15:01:54.990Z,78.59
2022-11-25T15:07:02.290Z,78.60
2022-11-25T15:12:13.590Z,78.65
2022-11-25T15:17:30.065Z,78.60
2022-11-25T15:22:33.927Z,78.62
2022-11-25T15:27:49.939Z,78.59
2022-11-25T15:32:55.392Z,78.53
2022-11-25T15:37:59.937Z,78.49
2022-11-25T15:43:06.447Z,78.53
2022-11-25T15:48:24.582Z,78.51
2022-11-25T15:53:33.245Z,78.54
2022-11-25T15:58:37.350Z,78.52
2022-11-25T16:03:40.758Z,78.21
2022-11-25T16:09:00.459Z,78.29
2022-11-25T16:14:29.174Z,78.29
2022-11-25T16:19:37.976Z,78.24
2022-11-25T16:24:51.206Z,78.15
2022-11-25T16:29:58.111Z,78.34
2022-11-25T16:35:15.447Z,78.37
2022-11-25T16:40:19.405Z,78.33
2022-11-25T16:45:25.055Z,78.29
2022-11-25T16:50:28.586Z,78.11
2022-11-25T16:55:32.208Z,78.25
2022-11-25T17:00:36.026Z,78.17
2022-11-25T17:05:39.746Z,78.33
2022-11-25T17:10:44.797Z,78.20
2022-11-25T17:15:48.657Z,78.35
2022-11-25T17:20:52.135Z,78.25
2022-11-25T17:25:56.061Z,78.36
2022-11-25T17:30:59.884Z,78.38
2022-11-25T17:36:03.507Z,78.45
2022-11-25T17:41:16.145Z,78.54
2022-11-25T17:46:20.425Z,78.52
2022-11-25T17:51:23.981Z,78.16
2022-11-25T17:56:32.718Z,78.37
2022-11-25T18:01:36.426Z,78.21
2022-11-25T18:06:39.954Z,78.31
2022-11-25T18:11:47.003Z,78.22
2022-11-25T18:16:50.833Z,78.30
2022-11-25T18:22:00.639Z,78.29
2022-11-25T18:27:05.553Z,78.26
2022-11-25T18:32:11.111Z,78.24
2022-11-25T18:37:14.769Z,78.31
2022-11-25T18:42:26.153Z,78.42
2022-11-25T18:47:29.535Z,78.33
2022-11-25T18:52:32.996Z,78.34
2022-11-25T18:57:36.613Z,78.14
2022-11-25T19:02:40.155Z,78.38
2022-11-25T19:07:44.662Z,78.39
2022-11-25T19:12:51.568Z,78.51
2022-11-25T19:17:58.463Z,78.49
2022-11-25T19:23:16.315Z,78.39
2022-11-25T19:28:21.007Z,78.52
2022-11-25T19:33:35.325Z,78.44
2022-11-25T19:38:38.838Z,78.49
2022-11-25T19:43:42.353Z,78.39
2022-11-25T19:48:45.868Z,78.50
2022-11-25T19:53:49.693Z,78.47
2022-11-25T19:58:57.302Z,78.53
2022-11-25T20:04:02.638Z,78.48
2022-11-25T20:09:10.379Z,78.65
2022-11-25T20:14:13.712Z,78.48
2022-11-25T20:19:19.593Z,78.60
2022-11-25T20:24:24.227Z,78.71
2022-11-25T20:29:30.655Z,78.86
2022-11-25T20:34:41.696Z,78.73
2022-11-25T20:39:45.701Z,78.62
2022-11-25T20:44:57.199Z,78.70
2022-11-25T20:50:01.334Z,78.76
2022-11-25T20:55:19.290Z,78.79
2022-11-25T21:00:28.335Z,78.73
2022-11-25T21:05:32.465Z,78.78
2022-11-25T21:10:36.078Z,78.56
2022-11-25T21:15:39.598Z,78.63
2022-11-25T21:20:43.929Z,78.51
2022-11-25T21:25:48.982Z,78.54
2022-11-25T21:30:52.327Z,78.80
2022-11-25T21:35:56.831Z,78.91
2022-11-25T21:41:00.349Z,78.97
2022-11-25T21:46:07.822Z,78.95
2022-11-25T21:51:14.138Z,78.96
2022-11-25T21:56:30.761Z,79.05
2022-11-25T22:01:34.515Z,78.55
2022-11-25T22:06:37.894Z,78.78
2022-11-25T22:11:47.702Z,78.92
2022-11-25T22:16:52.049Z,79.06
2022-11-25T22:21:56.724Z,78.94
2022-11-25T22:27:00.255Z,78.90
2022-11-25T22:32:07.111Z,79.00
2022-11-25T22:37:22.958Z,79.12
2022-11-25T22:42:29.951Z,79.11
2022-11-25T22:47:38.273Z,79.30
2022-11-25T22:52:41.587Z,79.38
2022-11-25T22:57:45.304Z,79.47
2022-11-25T23:02:50.561Z,79.50
2022-11-25T23:07:55.092Z,79.71
2022-11-25T23:12:58.524Z,79.74
2022-11-25T23:18:04.936Z,79.78
2022-11-25T23:23:20.905Z,79.67
2022-11-25T23:28:25.242Z,79.57
2022-11-25T23:33:37.259Z,79.59
2022-11-25T23:38:51.623Z,79.63
2022-11-25T23:43:55.789Z,79.71
2022-11-25T23:49:03.006Z,79.83
2022-11-25T23:54:06.573Z,79.91
2022-11-25T23:59:15.214Z,79.96
